sensor_id;sensor_type;location;lat;lon;timestamp;pressure;altitude;pressure_sealevel;temperature;humidity
56713;BME280;42589;45.536;9.032;2023-05-25T00:00:53;99646.72;;;46.72;15.18
56713;BME280;42589;45.536;9.032;2023-05-25T00:03:53;99635.22;;;45.82;15.79
56713;BME280;42589;45.536;9.032;2023-05-25T00:06:54;99639.22;;;45.78;16.48
56713;BME280;42589;45.536;9.032;2023-05-25T00:09:54;99641.69;;;45.21;16.22
56713;BME280;42589;45.536;9.032;2023-05-25T00:12:55;99635.38;;;46.22;15.57
56713;BME280;42589;45.536;9.032;2023-05-25T00:15:56;99631.06;;;46.74;15.10
56713;BME280;42589;45.536;9.032;2023-05-25T00:18:57;99626.88;;;45.93;15.63
56713;BME280;42589;45.536;9.032;2023-05-25T00:21:57;99619.66;;;45.26;16.31
56713;BME280;42589;45.536;9.032;2023-05-25T00:25:01;99623.16;;;44.64;16.66
56713;BME280;42589;45.536;9.032;2023-05-25T00:28:02;99619.75;;;45.40;15.86
56713;BME280;42589;45.536;9.032;2023-05-25T00:31:03;99621.88;;;45.03;15.88
56713;BME280;42589;45.536;9.032;2023-05-25T00:34:04;99620.91;;;45.32;16.60
56713;BME280;42589;45.536;9.032;2023-05-25T00:37:04;99618.53;;;43.74;17.53
56713;BME280;42589;45.536;9.032;2023-05-25T00:40:06;99625.22;;;45.15;16.00
56713;BME280;42589;45.536;9.032;2023-05-25T00:43:08;99624.19;;;46.25;15.93
56713;BME280;42589;45.536;9.032;2023-05-25T00:46:08;99621.66;;;45.95;15.66
56713;BME280;42589;45.536;9.032;2023-05-25T00:49:09;99628.63;;;47.41;14.78
56713;BME280;42589;45.536;9.032;2023-05-25T00:52:12;99622.22;;;46.47;14.92
56713;BME280;42589;45.536;9.032;2023-05-25T00:55:12;99625.44;;;46.82;15.08
56713;BME280;42589;45.536;9.032;2023-05-25T00:58:15;99626.97;;;47.54;14.46
56713;BME280;42589;45.536;9.032;2023-05-25T01:01:16;99613.41;;;47.20;14.81
56713;BME280;42589;45.536;9.032;2023-05-25T01:04:17;99615.81;;;47.01;14.54
56713;BME280;42589;45.536;9.032;2023-05-25T01:07:21;99614.03;;;45.92;15.22
56713;BME280;42589;45.536;9.032;2023-05-25T01:10:42;99610.88;;;47.62;14.60
56713;BME280;42589;45.536;9.032;2023-05-25T01:13:42;99624.91;;;47.80;14.36
56713;BME280;42589;45.536;9.032;2023-05-25T01:16:43;99618.91;;;47.74;13.79
56713;BME280;42589;45.536;9.032;2023-05-25T01:19:47;99617.31;;;47.62;14.04
56713;BME280;42589;45.536;9.032;2023-05-25T01:22:50;99623.78;;;47.52;14.40
56713;BME280;42589;45.536;9.032;2023-05-25T01:25:53;99619.84;;;46.89;14.46
56713;BME280;42589;45.536;9.032;2023-05-25T01:28:57;99622.25;;;47.05;14.49
56713;BME280;42589;45.536;9.032;2023-05-25T01:31:58;99624.25;;;46.65;14.85
56713;BME280;42589;45.536;9.032;2023-05-25T01:34:59;99629.88;;;47.01;14.58
56713;BME280;42589;45.536;9.032;2023-05-25T01:38:01;99634.66;;;47.43;14.51
56713;BME280;42589;45.536;9.032;2023-05-25T01:41:01;99634.69;;;47.18;14.41
56713;BME280;42589;45.536;9.032;2023-05-25T01:44:02;99630.44;;;47.98;14.00
56713;BME280;42589;45.536;9.032;2023-05-25T01:47:09;99632.22;;;47.56;13.97
56713;BME280;42589;45.536;9.032;2023-05-25T01:50:22;99638.56;;;47.85;14.23
56713;BME280;42589;45.536;9.032;2023-05-25T01:53:45;99635.47;;;47.33;14.40
56713;BME280;42589;45.536;9.032;2023-05-25T01:56:45;99629.38;;;47.63;14.51
56713;BME280;42589;45.536;9.032;2023-05-25T01:59:47;99645.00;;;47.85;14.20
56713;BME280;42589;45.536;9.032;2023-05-25T02:02:49;99652.16;;;48.01;13.81
56713;BME280;42589;45.536;9.032;2023-05-25T02:05:49;99645.06;;;47.75;13.72
56713;BME280;42589;45.536;9.032;2023-05-25T02:08:50;99643.50;;;47.31;14.77
56713;BME280;42589;45.536;9.032;2023-05-25T02:11:51;99643.78;;;47.83;14.08
56713;BME280;42589;45.536;9.032;2023-05-25T02:14:52;99653.13;;;47.48;14.11
56713;BME280;42589;45.536;9.032;2023-05-25T02:17:52;99647.91;;;47.53;14.76
56713;BME280;42589;45.536;9.032;2023-05-25T02:20:56;99650.59;;;47.89;14.12
56713;BME280;42589;45.536;9.032;2023-05-25T02:23:56;99648.91;;;48.13;14.11
56713;BME280;42589;45.536;9.032;2023-05-25T02:26:57;99652.22;;;47.94;13.75
56713;BME280;42589;45.536;9.032;2023-05-25T02:29:58;99654.66;;;47.70;14.14
56713;BME280;42589;45.536;9.032;2023-05-25T02:32:58;99665.06;;;47.95;13.93
56713;BME280;42589;45.536;9.032;2023-05-25T02:36:01;99654.78;;;46.95;14.37
56713;BME280;42589;45.536;9.032;2023-05-25T02:39:01;99662.38;;;47.55;14.63
56713;BME280;42589;45.536;9.032;2023-05-25T02:42:02;99657.19;;;47.36;14.88
56713;BME280;42589;45.536;9.032;2023-05-25T02:45:02;99666.75;;;47.81;14.22
56713;BME280;42589;45.536;9.032;2023-05-25T02:48:05;99646.00;;;42.89;17.77
56713;BME280;42589;45.536;9.032;2023-05-25T02:51:06;99653.59;;;42.88;17.28
56713;BME280;42589;45.536;9.032;2023-05-25T02:54:06;99652.97;;;45.31;16.04
56713;BME280;42589;45.536;9.032;2023-05-25T02:57:07;99655.56;;;47.38;14.62
56713;BME280;42589;45.536;9.032;2023-05-25T03:00:08;99655.88;;;47.80;14.07
56713;BME280;42589;45.536;9.032;2023-05-25T03:03:11;99660.44;;;47.06;14.83
56713;BME280;42589;45.536;9.032;2023-05-25T03:06:12;99664.44;;;47.30;14.48
56713;BME280;42589;45.536;9.032;2023-05-25T03:09:13;99673.09;;;46.21;15.49
56713;BME280;42589;45.536;9.032;2023-05-25T03:12:13;99668.34;;;46.28;16.00
56713;BME280;42589;45.536;9.032;2023-05-25T03:15:13;99667.78;;;45.94;16.08
56713;BME280;42589;45.536;9.032;2023-05-25T03:18:14;99682.09;;;46.84;15.45
56713;BME280;42589;45.536;9.032;2023-05-25T03:21:15;99680.38;;;46.29;15.53
56713;BME280;42589;45.536;9.032;2023-05-25T03:24:15;99679.72;;;47.14;14.49
56713;BME280;42589;45.536;9.032;2023-05-25T03:27:16;99685.72;;;46.73;14.94
56713;BME280;42589;45.536;9.032;2023-05-25T03:30:17;99676.94;;;45.80;15.57
56713;BME280;42589;45.536;9.032;2023-05-25T03:33:17;99680.53;;;47.11;14.76
56713;BME280;42589;45.536;9.032;2023-05-25T03:36:18;99688.13;;;46.82;14.98
56713;BME280;42589;45.536;9.032;2023-05-25T03:39:18;99692.16;;;47.10;15.11
56713;BME280;42589;45.536;9.032;2023-05-25T03:42:19;99697.31;;;47.86;14.73
56713;BME280;42589;45.536;9.032;2023-05-25T03:45:19;99702.00;;;48.25;14.66
56713;BME280;42589;45.536;9.032;2023-05-25T03:48:20;99712.50;;;48.14;14.63
56713;BME280;42589;45.536;9.032;2023-05-25T03:51:21;99712.47;;;48.18;14.13
56713;BME280;42589;45.536;9.032;2023-05-25T03:54:21;99723.84;;;47.89;14.40
56713;BME280;42589;45.536;9.032;2023-05-25T03:57:22;99719.84;;;47.83;14.07
56713;BME280;42589;45.536;9.032;2023-05-25T04:00:22;99727.53;;;47.29;15.43
56713;BME280;42589;45.536;9.032;2023-05-25T04:03:23;99732.34;;;47.35;14.96
56713;BME280;42589;45.536;9.032;2023-05-25T04:06:24;99735.94;;;47.82;14.59
56713;BME280;42589;45.536;9.032;2023-05-25T04:09:24;99739.91;;;47.99;14.09
56713;BME280;42589;45.536;9.032;2023-05-25T04:12:25;99745.59;;;47.85;14.20
56713;BME280;42589;45.536;9.032;2023-05-25T04:15:26;99745.97;;;47.94;14.57
56713;BME280;42589;45.536;9.032;2023-05-25T04:18:26;99745.22;;;47.11;15.00
56713;BME280;42589;45.536;9.032;2023-05-25T04:21:27;99751.63;;;47.83;14.25
56713;BME280;42589;45.536;9.032;2023-05-25T04:24:27;99753.06;;;48.38;14.21
56713;BME280;42589;45.536;9.032;2023-05-25T04:27:28;99760.59;;;48.59;14.08
56713;BME280;42589;45.536;9.032;2023-05-25T04:30:28;99768.06;;;47.96;14.51
56713;BME280;42589;45.536;9.032;2023-05-25T04:33:30;99762.66;;;48.51;14.22
56713;BME280;42589;45.536;9.032;2023-05-25T04:36:31;99772.84;;;48.24;14.58
56713;BME280;42589;45.536;9.032;2023-05-25T04:39:31;99776.41;;;48.39;14.55
56713;BME280;42589;45.536;9.032;2023-05-25T04:42:31;99777.38;;;47.32;15.33
56713;BME280;42589;45.536;9.032;2023-05-25T04:45:32;99777.72;;;48.09;14.30
56713;BME280;42589;45.536;9.032;2023-05-25T04:48:33;99772.88;;;48.09;14.42
56713;BME280;42589;45.536;9.032;2023-05-25T04:51:34;99785.69;;;48.32;14.31
56713;BME280;42589;45.536;9.032;2023-05-25T04:54:34;99788.91;;;48.38;13.79
56713;BME280;42589;45.536;9.032;2023-05-25T04:57:35;99797.13;;;47.75;15.07
56713;BME280;42589;45.536;9.032;2023-05-25T05:00:35;99792.19;;;48.04;14.46
56713;BME280;42589;45.536;9.032;2023-05-25T05:03:39;99789.25;;;48.54;14.13
56713;BME280;42589;45.536;9.032;2023-05-25T05:06:39;99797.00;;;46.85;15.16
56713;BME280;42589;45.536;9.032;2023-05-25T05:09:40;99799.88;;;47.96;14.71
56713;BME280;42589;45.536;9.032;2023-05-25T05:12:41;99801.06;;;47.95;14.72
56713;BME280;42589;45.536;9.032;2023-05-25T05:15:41;99809.06;;;48.29;14.19
56713;BME280;42589;45.536;9.032;2023-05-25T05:18:42;99811.81;;;48.50;14.64
56713;BME280;42589;45.536;9.032;2023-05-25T05:21:42;99809.13;;;47.89;14.10
56713;BME280;42589;45.536;9.032;2023-05-25T05:24:43;99815.19;;;47.41;15.12
56713;BME280;42589;45.536;9.032;2023-05-25T05:27:44;99817.16;;;47.16;15.09
56713;BME280;42589;45.536;9.032;2023-05-25T05:30:44;99814.25;;;46.80;15.75
56713;BME280;42589;45.536;9.032;2023-05-25T05:33:46;99828.00;;;48.18;14.23
56713;BME280;42589;45.536;9.032;2023-05-25T05:36:46;99833.84;;;48.73;14.11
56713;BME280;42589;45.536;9.032;2023-05-25T05:39:47;99834.09;;;47.41;14.84
56713;BME280;42589;45.536;9.032;2023-05-25T05:42:54;99846.19;;;47.84;15.04
56713;BME280;42589;45.536;9.032;2023-05-25T05:45:56;99841.41;;;48.98;13.77
56713;BME280;42589;45.536;9.032;2023-05-25T05:48:57;99844.53;;;48.19;14.36
56713;BME280;42589;45.536;9.032;2023-05-25T05:51:58;99849.69;;;48.39;14.19
56713;BME280;42589;45.536;9.032;2023-05-25T05:54:58;99843.59;;;46.06;15.66
56713;BME280;42589;45.536;9.032;2023-05-25T05:58:00;99859.06;;;49.09;13.82
56713;BME280;42589;45.536;9.032;2023-05-25T06:01:01;99868.13;;;48.65;13.94
56713;BME280;42589;45.536;9.032;2023-05-25T06:04:03;99866.44;;;49.52;13.56
56713;BME280;42589;45.536;9.032;2023-05-25T06:07:05;99866.75;;;49.05;13.71
56713;BME280;42589;45.536;9.032;2023-05-25T06:10:05;99877.38;;;48.72;14.25
56713;BME280;42589;45.536;9.032;2023-05-25T06:13:06;99881.56;;;48.25;13.92
56713;BME280;42589;45.536;9.032;2023-05-25T06:16:07;99886.38;;;47.92;14.92
56713;BME280;42589;45.536;9.032;2023-05-25T06:19:08;99890.25;;;48.73;14.14
56713;BME280;42589;45.536;9.032;2023-05-25T06:22:11;99896.28;;;48.86;14.20
56713;BME280;42589;45.536;9.032;2023-05-25T06:25:12;99898.03;;;49.36;13.47
56713;BME280;42589;45.536;9.032;2023-05-25T06:28:13;99905.72;;;48.15;14.01
56713;BME280;42589;45.536;9.032;2023-05-25T06:31:13;99910.16;;;48.16;14.07
56713;BME280;42589;45.536;9.032;2023-05-25T06:34:13;99910.91;;;48.34;13.78
56713;BME280;42589;45.536;9.032;2023-05-25T06:37:14;99913.28;;;49.42;12.96
56713;BME280;42589;45.536;9.032;2023-05-25T06:40:15;99919.88;;;49.21;12.82
56713;BME280;42589;45.536;9.032;2023-05-25T06:43:16;99918.59;;;48.09;14.07
56713;BME280;42589;45.536;9.032;2023-05-25T06:46:17;99926.06;;;49.64;13.04
56713;BME280;42589;45.536;9.032;2023-05-25T06:49:17;99923.16;;;49.09;13.38
56713;BME280;42589;45.536;9.032;2023-05-25T06:52:18;99929.44;;;47.67;14.19
56713;BME280;42589;45.536;9.032;2023-05-25T06:55:19;99932.03;;;46.92;15.27
56713;BME280;42589;45.536;9.032;2023-05-25T06:58:20;99942.19;;;48.87;13.37
56713;BME280;42589;45.536;9.032;2023-05-25T07:01:21;99940.22;;;48.73;13.53
56713;BME280;42589;45.536;9.032;2023-05-25T07:04:25;99937.91;;;48.00;14.45
56713;BME280;42589;45.536;9.032;2023-05-25T07:07:26;99945.97;;;47.83;14.27
56713;BME280;42589;45.536;9.032;2023-05-25T07:10:26;99945.94;;;47.98;13.80
56713;BME280;42589;45.536;9.032;2023-05-25T07:13:27;99946.78;;;48.16;14.04
56713;BME280;42589;45.536;9.032;2023-05-25T07:16:27;99955.91;;;50.55;12.90
56713;BME280;42589;45.536;9.032;2023-05-25T07:19:31;99956.16;;;49.22;13.79
56713;BME280;42589;45.536;9.032;2023-05-25T07:22:32;99954.00;;;48.03;13.78
56713;BME280;42589;45.536;9.032;2023-05-25T07:25:33;99952.13;;;49.27;13.44
56713;BME280;42589;45.536;9.032;2023-05-25T07:28:34;99969.97;;;50.21;12.77
56713;BME280;42589;45.536;9.032;2023-05-25T07:31:35;99973.38;;;50.88;12.68
56713;BME280;42589;45.536;9.032;2023-05-25T07:34:36;99975.06;;;50.44;12.74
56713;BME280;42589;45.536;9.032;2023-05-25T07:37:37;99978.97;;;49.57;12.88
56713;BME280;42589;45.536;9.032;2023-05-25T07:40:38;99984.25;;;50.90;12.63
56713;BME280;42589;45.536;9.032;2023-05-25T07:43:39;99971.88;;;49.93;12.85
56713;BME280;42589;45.536;9.032;2023-05-25T07:46:39;99983.56;;;49.25;12.69
56713;BME280;42589;45.536;9.032;2023-05-25T07:49:39;99992.81;;;50.45;12.44
56713;BME280;42589;45.536;9.032;2023-05-25T07:52:40;99991.81;;;51.00;12.23
56713;BME280;42589;45.536;9.032;2023-05-25T07:55:40;99991.53;;;51.21;11.59
56713;BME280;42589;45.536;9.032;2023-05-25T07:58:42;99998.72;;;50.99;12.28
56713;BME280;42589;45.536;9.032;2023-05-25T08:01:42;99993.88;;;49.57;13.34
56713;BME280;42589;45.536;9.032;2023-05-25T08:04:43;99992.38;;;49.35;13.67
56713;BME280;42589;45.536;9.032;2023-05-25T08:07:44;99991.03;;;47.83;13.88
56713;BME280;42589;45.536;9.032;2023-05-25T08:10:44;99998.50;;;49.89;12.64
56713;BME280;42589;45.536;9.032;2023-05-25T08:13:45;100005.56;;;51.32;11.96
56713;BME280;42589;45.536;9.032;2023-05-25T08:16:45;100011.69;;;50.96;10.97
56713;BME280;42589;45.536;9.032;2023-05-25T08:19:46;100017.81;;;52.34;10.82
56713;BME280;42589;45.536;9.032;2023-05-25T08:22:47;100016.00;;;48.31;13.03
56713;BME280;42589;45.536;9.032;2023-05-25T08:25:48;100019.53;;;50.78;11.66
56713;BME280;42589;45.536;9.032;2023-05-25T08:28:49;100020.72;;;49.06;12.22
56713;BME280;42589;45.536;9.032;2023-05-25T08:31:49;100028.59;;;49.54;12.58
56713;BME280;42589;45.536;9.032;2023-05-25T08:34:50;100026.59;;;49.47;12.33
56713;BME280;42589;45.536;9.032;2023-05-25T08:37:50;100032.47;;;48.79;12.67
56713;BME280;42589;45.536;9.032;2023-05-25T08:41:04;100038.56;;;48.53;12.90
56713;BME280;42589;45.536;9.032;2023-05-25T08:44:05;100036.09;;;48.76;12.59
56713;BME280;42589;45.536;9.032;2023-05-25T08:47:07;100036.50;;;48.03;13.67
56713;BME280;42589;45.536;9.032;2023-05-25T08:50:11;100036.00;;;49.16;12.35
56713;BME280;42589;45.536;9.032;2023-05-25T08:53:15;100051.94;;;51.45;11.10
56713;BME280;42589;45.536;9.032;2023-05-25T08:56:17;100055.81;;;53.43;10.24
56713;BME280;42589;45.536;9.032;2023-05-25T09:02:34;100050.69;;;49.70;12.14
56713;BME280;42589;45.536;9.032;2023-05-25T09:05:37;100047.97;;;50.67;11.68
56713;BME280;42589;45.536;9.032;2023-05-25T09:08:39;100053.44;;;50.40;11.36
56713;BME280;42589;45.536;9.032;2023-05-25T09:11:40;100049.84;;;50.36;11.66
56713;BME280;42589;45.536;9.032;2023-05-25T09:14:41;100054.56;;;50.95;12.11
56713;BME280;42589;45.536;9.032;2023-05-25T09:17:44;100062.97;;;50.12;11.97
56713;BME280;42589;45.536;9.032;2023-05-25T09:20:45;100055.06;;;48.26;13.68
56713;BME280;42589;45.536;9.032;2023-05-25T09:23:46;100075.09;;;51.94;10.75
56713;BME280;42589;45.536;9.032;2023-05-25T09:26:46;100072.97;;;50.69;11.68
56713;BME280;42589;45.536;9.032;2023-05-25T09:29:48;100071.00;;;51.72;11.23
56713;BME280;42589;45.536;9.032;2023-05-25T09:32:49;100074.34;;;51.33;11.49
56713;BME280;42589;45.536;9.032;2023-05-25T09:35:53;100075.84;;;51.06;11.35
56713;BME280;42589;45.536;9.032;2023-05-25T09:38:55;100077.41;;;50.21;12.03
56713;BME280;42589;45.536;9.032;2023-05-25T09:41:55;100085.13;;;50.66;11.65
56713;BME280;42589;45.536;9.032;2023-05-25T09:44:59;100084.47;;;49.95;11.88
56713;BME280;42589;45.536;9.032;2023-05-25T09:48:00;100090.75;;;50.17;11.57
56713;BME280;42589;45.536;9.032;2023-05-25T09:51:01;100097.75;;;48.89;12.76
56713;BME280;42589;45.536;9.032;2023-05-25T09:54:02;100092.38;;;50.14;11.50
56713;BME280;42589;45.536;9.032;2023-05-25T09:57:03;100098.72;;;52.15;10.73
56713;BME280;42589;45.536;9.032;2023-05-25T10:00:04;100097.81;;;51.60;11.00
56713;BME280;42589;45.536;9.032;2023-05-25T10:03:05;100104.72;;;52.44;10.24
56713;BME280;42589;45.536;9.032;2023-05-25T10:06:06;100102.81;;;50.77;11.38
56713;BME280;42589;45.536;9.032;2023-05-25T10:09:07;100104.53;;;52.31;11.03
56713;BME280;42589;45.536;9.032;2023-05-25T10:12:10;100106.44;;;50.32;11.76
56713;BME280;42589;45.536;9.032;2023-05-25T10:15:11;100097.38;;;49.92;12.01
56713;BME280;42589;45.536;9.032;2023-05-25T10:18:13;100110.66;;;52.03;10.71
56713;BME280;42589;45.536;9.032;2023-05-25T10:21:15;100110.66;;;48.65;12.82
56713;BME280;42589;45.536;9.032;2023-05-25T10:24:21;100103.38;;;48.17;12.99
56713;BME280;42589;45.536;9.032;2023-05-25T10:27:26;100097.25;;;50.14;11.81
56713;BME280;42589;45.536;9.032;2023-05-25T10:30:28;100105.44;;;51.67;11.23
56713;BME280;42589;45.536;9.032;2023-05-25T10:33:29;100110.16;;;49.16;12.58
56713;BME280;42589;45.536;9.032;2023-05-25T10:36:32;100101.41;;;48.61;12.77
56713;BME280;42589;45.536;9.032;2023-05-25T10:39:33;100118.19;;;52.63;10.41
56713;BME280;42589;45.536;9.032;2023-05-25T10:42:35;100128.94;;;53.39;10.21
56713;BME280;42589;45.536;9.032;2023-05-25T10:45:36;100128.19;;;53.15;10.51
56713;BME280;42589;45.536;9.032;2023-05-25T10:48:37;100131.25;;;53.44;10.01
56713;BME280;42589;45.536;9.032;2023-05-25T10:51:41;100115.81;;;52.08;11.16
56713;BME280;42589;45.536;9.032;2023-05-25T10:54:42;100117.22;;;53.37;9.94
56713;BME280;42589;45.536;9.032;2023-05-25T10:57:43;100110.34;;;52.20;11.30
56713;BME280;42589;45.536;9.032;2023-05-25T11:07:05;100096.13;;;50.53;11.86
56713;BME280;42589;45.536;9.032;2023-05-25T11:10:07;100099.19;;;52.10;10.77
56713;BME280;42589;45.536;9.032;2023-05-25T11:13:50;100093.56;;;52.57;10.71
56713;BME280;42589;45.536;9.032;2023-05-25T11:16:32;100083.88;;;47.55;13.19
56713;BME280;42589;45.536;9.032;2023-05-25T11:19:53;100087.44;;;49.66;12.24
56713;BME280;42589;45.536;9.032;2023-05-25T11:22:53;100079.41;;;47.47;13.44
56713;BME280;42589;45.536;9.032;2023-05-25T11:26:01;100072.06;;;47.31;13.05
56713;BME280;42589;45.536;9.032;2023-05-25T11:29:14;100069.03;;;50.55;11.91
56713;BME280;42589;45.536;9.032;2023-05-25T11:32:14;100080.94;;;53.05;10.28
56713;BME280;42589;45.536;9.032;2023-05-25T11:35:15;100070.38;;;52.15;10.26
56713;BME280;42589;45.536;9.032;2023-05-25T11:38:16;100069.88;;;51.66;10.89
56713;BME280;42589;45.536;9.032;2023-05-25T11:41:20;100075.31;;;52.34;10.38
56713;BME280;42589;45.536;9.032;2023-05-25T11:44:24;100073.03;;;52.49;10.39
56713;BME280;42589;45.536;9.032;2023-05-25T11:47:26;100068.13;;;50.21;11.48
56713;BME280;42589;45.536;9.032;2023-05-25T11:50:28;100061.69;;;51.98;10.82
56713;BME280;42589;45.536;9.032;2023-05-25T11:53:29;100075.44;;;52.51;10.40
56713;BME280;42589;45.536;9.032;2023-05-25T11:56:30;100064.28;;;51.59;10.63
56713;BME280;42589;45.536;9.032;2023-05-25T11:59:32;100070.09;;;53.20;9.90
56713;BME280;42589;45.536;9.032;2023-05-25T12:02:37;100069.66;;;53.21;10.05
56713;BME280;42589;45.536;9.032;2023-05-25T12:05:38;100052.19;;;52.36;10.18
56713;BME280;42589;45.536;9.032;2023-05-25T12:08:39;100058.13;;;54.17;9.65
56713;BME280;42589;45.536;9.032;2023-05-25T12:11:39;100061.59;;;55.83;8.79
56713;BME280;42589;45.536;9.032;2023-05-25T12:14:47;100054.16;;;52.39;10.29
56713;BME280;42589;45.536;9.032;2023-05-25T12:17:48;100055.75;;;54.16;9.75
56713;BME280;42589;45.536;9.032;2023-05-25T12:20:49;100059.88;;;52.59;10.25
56713;BME280;42589;45.536;9.032;2023-05-25T12:23:51;100057.31;;;53.28;9.80
56713;BME280;42589;45.536;9.032;2023-05-25T12:26:53;100062.53;;;55.68;9.17
56713;BME280;42589;45.536;9.032;2023-05-25T12:29:58;100050.31;;;53.52;10.30
56713;BME280;42589;45.536;9.032;2023-05-25T12:32:59;100048.25;;;53.73;9.61
56713;BME280;42589;45.536;9.032;2023-05-25T12:36:01;100040.38;;;52.14;10.76
56713;BME280;42589;45.536;9.032;2023-05-25T12:39:02;100044.34;;;52.20;10.48
56713;BME280;42589;45.536;9.032;2023-05-25T12:42:03;100034.59;;;51.70;10.43
56713;BME280;42589;45.536;9.032;2023-05-25T12:45:04;100039.47;;;52.67;10.15
56713;BME280;42589;45.536;9.032;2023-05-25T12:48:06;100041.44;;;53.50;9.76
56713;BME280;42589;45.536;9.032;2023-05-25T12:51:07;100038.16;;;54.04;9.52
56713;BME280;42589;45.536;9.032;2023-05-25T12:54:09;100042.41;;;52.84;10.32
56713;BME280;42589;45.536;9.032;2023-05-25T12:57:11;100048.97;;;52.57;10.88
56713;BME280;42589;45.536;9.032;2023-05-25T13:00:12;100040.78;;;51.89;11.63
56713;BME280;42589;45.536;9.032;2023-05-25T13:03:12;100041.03;;;55.50;9.86
56713;BME280;42589;45.536;9.032;2023-05-25T13:06:17;100039.72;;;54.55;10.52
56713;BME280;42589;45.536;9.032;2023-05-25T13:09:18;100036.44;;;55.14;10.24
56713;BME280;42589;45.536;9.032;2023-05-25T13:12:22;100046.25;;;54.22;10.80
56713;BME280;42589;45.536;9.032;2023-05-25T13:15:23;100038.66;;;55.36;9.94
56713;BME280;42589;45.536;9.032;2023-05-25T13:18:25;100032.31;;;55.83;9.76
56713;BME280;42589;45.536;9.032;2023-05-25T13:21:26;100019.34;;;54.72;10.04
56713;BME280;42589;45.536;9.032;2023-05-25T13:24:27;100023.34;;;54.75;9.92
56713;BME280;42589;45.536;9.032;2023-05-25T13:27:28;100025.09;;;55.53;9.84
56713;BME280;42589;45.536;9.032;2023-05-25T13:30:29;100027.88;;;55.14;10.18
56713;BME280;42589;45.536;9.032;2023-05-25T13:33:29;100033.06;;;53.79;11.35
56713;BME280;42589;45.536;9.032;2023-05-25T13:36:30;100031.13;;;53.93;11.29
56713;BME280;42589;45.536;9.032;2023-05-25T13:39:34;100024.59;;;53.96;10.94
56713;BME280;42589;45.536;9.032;2023-05-25T13:42:35;100023.69;;;54.32;10.94
56713;BME280;42589;45.536;9.032;2023-05-25T13:45:36;100026.19;;;53.61;10.98
56713;BME280;42589;45.536;9.032;2023-05-25T13:48:37;100027.63;;;54.96;10.51
56713;BME280;42589;45.536;9.032;2023-05-25T13:51:38;100024.66;;;55.42;10.11
56713;BME280;42589;45.536;9.032;2023-05-25T13:54:38;100033.88;;;56.10;9.89
56713;BME280;42589;45.536;9.032;2023-05-25T13:57:39;100033.16;;;56.31;9.72
56713;BME280;42589;45.536;9.032;2023-05-25T14:00:40;100019.56;;;55.07;10.01
56713;BME280;42589;45.536;9.032;2023-05-25T14:03:41;100029.72;;;56.23;9.53
56713;BME280;42589;45.536;9.032;2023-05-25T14:06:41;100020.63;;;56.16;9.25
56713;BME280;42589;45.536;9.032;2023-05-25T14:09:42;100021.28;;;57.11;8.67
56713;BME280;42589;45.536;9.032;2023-05-25T14:12:43;100027.19;;;57.17;9.17
56713;BME280;42589;45.536;9.032;2023-05-25T14:15:43;100021.19;;;57.24;8.55
56713;BME280;42589;45.536;9.032;2023-05-25T14:18:44;100017.50;;;57.46;8.48
56713;BME280;42589;45.536;9.032;2023-05-25T14:21:45;100015.44;;;57.96;8.67
56713;BME280;42589;45.536;9.032;2023-05-25T14:24:45;100009.38;;;57.84;7.89
56713;BME280;42589;45.536;9.032;2023-05-25T14:27:46;100011.97;;;57.60;8.99
56713;BME280;42589;45.536;9.032;2023-05-25T14:30:47;100007.72;;;57.03;8.76
56713;BME280;42589;45.536;9.032;2023-05-25T14:33:47;100001.69;;;57.32;8.01
56713;BME280;42589;45.536;9.032;2023-05-25T14:36:48;99982.22;;;55.18;9.06
56713;BME280;42589;45.536;9.032;2023-05-25T14:39:48;99997.09;;;56.81;9.01
56713;BME280;42589;45.536;9.032;2023-05-25T14:42:49;99998.38;;;57.33;8.02
56713;BME280;42589;45.536;9.032;2023-05-25T14:45:49;99984.88;;;57.03;8.34
56713;BME280;42589;45.536;9.032;2023-05-25T14:48:50;99989.19;;;57.38;7.65
56713;BME280;42589;45.536;9.032;2023-05-25T14:51:54;99989.78;;;58.32;7.94
56713;BME280;42589;45.536;9.032;2023-05-25T14:54:55;99991.03;;;58.68;7.82
56713;BME280;42589;45.536;9.032;2023-05-25T14:57:56;99997.88;;;58.71;7.38
56713;BME280;42589;45.536;9.032;2023-05-25T15:00:57;99992.03;;;59.92;7.16
56713;BME280;42589;45.536;9.032;2023-05-25T15:03:57;99987.00;;;59.45;7.01
56713;BME280;42589;45.536;9.032;2023-05-25T15:06:58;99993.13;;;60.73;6.46
56713;BME280;42589;45.536;9.032;2023-05-25T15:09:59;99992.13;;;61.20;5.62
56713;BME280;42589;45.536;9.032;2023-05-25T15:13:00;100009.59;;;61.67;5.84
56713;BME280;42589;45.536;9.032;2023-05-25T15:16:01;100009.03;;;61.83;6.00
56713;BME280;42589;45.536;9.032;2023-05-25T15:19:02;100008.97;;;60.83;6.75
56713;BME280;42589;45.536;9.032;2023-05-25T15:22:03;100013.44;;;60.69;6.79
56713;BME280;42589;45.536;9.032;2023-05-25T15:25:12;100001.16;;;59.82;6.68
56713;BME280;42589;45.536;9.032;2023-05-25T15:28:13;100022.16;;;62.51;5.79
56713;BME280;42589;45.536;9.032;2023-05-25T15:31:14;100016.00;;;60.82;6.60
56713;BME280;42589;45.536;9.032;2023-05-25T15:34:14;100013.41;;;59.58;7.00
56713;BME280;42589;45.536;9.032;2023-05-25T15:37:15;100017.84;;;61.80;6.40
56713;BME280;42589;45.536;9.032;2023-05-25T15:40:15;100025.28;;;61.86;5.86
56713;BME280;42589;45.536;9.032;2023-05-25T15:43:16;100025.88;;;60.66;6.36
56713;BME280;42589;45.536;9.032;2023-05-25T15:46:16;100025.28;;;61.86;5.90
56713;BME280;42589;45.536;9.032;2023-05-25T15:49:17;100035.31;;;60.81;5.97
56713;BME280;42589;45.536;9.032;2023-05-25T15:52:18;100025.38;;;60.53;5.88
56713;BME280;42589;45.536;9.032;2023-05-25T15:55:19;100029.28;;;61.39;5.43
56713;BME280;42589;45.536;9.032;2023-05-25T15:58:19;100032.97;;;58.25;7.40
56713;BME280;42589;45.536;9.032;2023-05-25T16:01:20;100032.50;;;60.57;6.47
56713;BME280;42589;45.536;9.032;2023-05-25T16:04:20;100023.31;;;60.29;7.00
56713;BME280;42589;45.536;9.032;2023-05-25T16:07:21;100034.28;;;58.61;7.05